sensor_id;sensor_type;location;lat;lon;timestamp;P1;durP1;ratioP1;P2;durP2;ratioP2
25870;SDS011;13689;48.590;7.752;2023-02-24T00:00:05;25.25;;;12.73;;
25870;SDS011;13689;48.590;7.752;2023-02-24T00:02:50;28.42;;;13.30;;
25870;SDS011;13689;48.590;7.752;2023-02-24T00:05:16;24.50;;;13.38;;
25870;SDS011;13689;48.590;7.752;2023-02-24T00:07:42;30.33;;;14.45;;
25870;SDS011;13689;48.590;7.752;2023-02-24T00:10:08;29.02;;;14.43;;
25870;SDS011;13689;48.590;7.752;2023-02-24T00:12:35;31.27;;;13.68;;
25870;SDS011;13689;48.590;7.752;2023-02-24T00:15:01;31.55;;;12.93;;
25870;SDS011;13689;48.590;7.752;2023-02-24T00:17:28;22.33;;;13.10;;
25870;SDS011;13689;48.590;7.752;2023-02-24T00:19:55;27.20;;;12.38;;
25870;SDS011;13689;48.590;7.752;2023-02-24T00:22:20;24.45;;;13.13;;
25870;SDS011;13689;48.590;7.752;2023-02-24T00:24:46;27.73;;;13.40;;
25870;SDS011;13689;48.590;7.752;2023-02-24T00:27:11;23.02;;;10.98;;
25870;SDS011;13689;48.590;7.752;2023-02-24T00:29:38;27.85;;;12.20;;
25870;SDS011;13689;48.590;7.752;2023-02-24T00:32:07;23.08;;;11.07;;
25870;SDS011;13689;48.590;7.752;2023-02-24T00:34:36;28.13;;;13.00;;
25870;SDS011;13689;48.590;7.752;2023-02-24T00:37:03;26.08;;;12.05;;
25870;SDS011;13689;48.590;7.752;2023-02-24T00:39:33;28.75;;;13.05;;
25870;SDS011;13689;48.590;7.752;2023-02-24T00:42:04;28.75;;;14.23;;
25870;SDS011;13689;48.590;7.752;2023-02-24T00:44:31;27.45;;;13.00;;
25870;SDS011;13689;48.590;7.752;2023-02-24T00:46:59;26.40;;;13.55;;
25870;SDS011;13689;48.590;7.752;2023-02-24T00:49:26;23.98;;;12.32;;
25870;SDS011;13689;48.590;7.752;2023-02-24T00:51:53;30.40;;;13.65;;
25870;SDS011;13689;48.590;7.752;2023-02-24T00:54:19;29.88;;;12.50;;
25870;SDS011;13689;48.590;7.752;2023-02-24T00:56:46;28.48;;;13.52;;
25870;SDS011;13689;48.590;7.752;2023-02-24T00:59:12;36.72;;;13.82;;
25870;SDS011;13689;48.590;7.752;2023-02-24T01:01:39;26.90;;;12.55;;
25870;SDS011;13689;48.590;7.752;2023-02-24T01:04:06;29.98;;;13.75;;
25870;SDS011;13689;48.590;7.752;2023-02-24T01:06:39;29.58;;;12.90;;
25870;SDS011;13689;48.590;7.752;2023-02-24T01:09:08;26.80;;;10.75;;
25870;SDS011;13689;48.590;7.752;2023-02-24T01:11:39;33.10;;;13.90;;
25870;SDS011;13689;48.590;7.752;2023-02-24T01:14:26;27.08;;;13.93;;
25870;SDS011;13689;48.590;7.752;2023-02-24T01:16:54;30.05;;;13.65;;
25870;SDS011;13689;48.590;7.752;2023-02-24T01:19:21;26.52;;;13.00;;
25870;SDS011;13689;48.590;7.752;2023-02-24T01:21:49;26.65;;;13.02;;
25870;SDS011;13689;48.590;7.752;2023-02-24T01:24:19;23.60;;;9.57;;
25870;SDS011;13689;48.590;7.752;2023-02-24T01:26:47;29.17;;;13.63;;
25870;SDS011;13689;48.590;7.752;2023-02-24T01:29:13;32.03;;;14.15;;
25870;SDS011;13689;48.590;7.752;2023-02-24T01:31:39;29.88;;;13.93;;
25870;SDS011;13689;48.590;7.752;2023-02-24T01:34:06;31.83;;;14.70;;
25870;SDS011;13689;48.590;7.752;2023-02-24T01:36:35;30.77;;;14.40;;
25870;SDS011;13689;48.590;7.752;2023-02-24T01:39:02;34.42;;;15.48;;
25870;SDS011;13689;48.590;7.752;2023-02-24T01:41:39;35.13;;;14.82;;
25870;SDS011;13689;48.590;7.752;2023-02-24T01:44:07;27.83;;;12.88;;
25870;SDS011;13689;48.590;7.752;2023-02-24T01:46:56;25.30;;;11.15;;
25870;SDS011;13689;48.590;7.752;2023-02-24T01:49:26;35.03;;;14.95;;
25870;SDS011;13689;48.590;7.752;2023-02-24T01:54:37;30.48;;;15.07;;
25870;SDS011;13689;48.590;7.752;2023-02-24T01:57:16;24.00;;;12.63;;
25870;SDS011;13689;48.590;7.752;2023-02-24T01:59:44;35.08;;;15.60;;
25870;SDS011;13689;48.590;7.752;2023-02-24T02:02:12;32.70;;;15.68;;
25870;SDS011;13689;48.590;7.752;2023-02-24T02:04:41;32.63;;;15.10;;
25870;SDS011;13689;48.590;7.752;2023-02-24T02:07:11;31.05;;;13.65;;
25870;SDS011;13689;48.590;7.752;2023-02-24T02:09:39;35.13;;;15.38;;
25870;SDS011;13689;48.590;7.752;2023-02-24T02:12:06;35.55;;;15.57;;
25870;SDS011;13689;48.590;7.752;2023-02-24T02:14:33;34.53;;;14.48;;
25870;SDS011;13689;48.590;7.752;2023-02-24T02:37:14;36.13;;;16.92;;
25870;SDS011;13689;48.590;7.752;2023-02-24T02:40:03;35.30;;;16.02;;
25870;SDS011;13689;48.590;7.752;2023-02-24T02:43:06;37.25;;;16.05;;
25870;SDS011;13689;48.590;7.752;2023-02-24T02:46:05;32.92;;;16.40;;
25870;SDS011;13689;48.590;7.752;2023-02-24T02:48:38;32.95;;;15.60;;
25870;SDS011;13689;48.590;7.752;2023-02-24T02:51:20;38.13;;;16.77;;
25870;SDS011;13689;48.590;7.752;2023-02-24T02:53:57;38.35;;;17.98;;
25870;SDS011;13689;48.590;7.752;2023-02-24T02:56:41;36.22;;;16.20;;
25870;SDS011;13689;48.590;7.752;2023-02-24T02:59:15;36.50;;;16.25;;
25870;SDS011;13689;48.590;7.752;2023-02-24T03:01:46;36.47;;;17.10;;
25870;SDS011;13689;48.590;7.752;2023-02-24T03:04:14;39.70;;;17.33;;
25870;SDS011;13689;48.590;7.752;2023-02-24T03:06:47;37.60;;;17.90;;
25870;SDS011;13689;48.590;7.752;2023-02-24T03:09:23;40.17;;;16.70;;
25870;SDS011;13689;48.590;7.752;2023-02-24T03:11:54;42.47;;;18.85;;
25870;SDS011;13689;48.590;7.752;2023-02-24T03:14:28;39.95;;;16.90;;
25870;SDS011;13689;48.590;7.752;2023-02-24T03:16:59;42.53;;;17.75;;
25870;SDS011;13689;48.590;7.752;2023-02-24T03:19:32;40.22;;;18.30;;
25870;SDS011;13689;48.590;7.752;2023-02-24T03:24:39;36.10;;;17.17;;
25870;SDS011;13689;48.590;7.752;2023-02-24T03:27:15;43.85;;;18.92;;
25870;SDS011;13689;48.590;7.752;2023-02-24T03:32:27;47.97;;;19.08;;
25870;SDS011;13689;48.590;7.752;2023-02-24T03:34:59;44.75;;;18.60;;
25870;SDS011;13689;48.590;7.752;2023-02-24T03:37:31;46.30;;;19.13;;
25870;SDS011;13689;48.590;7.752;2023-02-24T03:39:58;44.13;;;19.00;;
25870;SDS011;13689;48.590;7.752;2023-02-24T03:42:35;46.80;;;20.27;;
25870;SDS011;13689;48.590;7.752;2023-02-24T03:45:05;50.53;;;20.10;;
25870;SDS011;13689;48.590;7.752;2023-02-24T03:47:31;51.13;;;19.80;;
25870;SDS011;13689;48.590;7.752;2023-02-24T03:49:57;52.42;;;20.30;;
25870;SDS011;13689;48.590;7.752;2023-02-24T03:52:27;53.65;;;20.15;;
25870;SDS011;13689;48.590;7.752;2023-02-24T03:58:06;53.28;;;19.58;;
25870;SDS011;13689;48.590;7.752;2023-02-24T04:06:00;52.20;;;20.05;;
25870;SDS011;13689;48.590;7.752;2023-02-24T04:08:33;56.25;;;20.33;;
25870;SDS011;13689;48.590;7.752;2023-02-24T04:11:11;46.28;;;17.05;;
25870;SDS011;13689;48.590;7.752;2023-02-24T04:13:52;50.58;;;19.13;;
25870;SDS011;13689;48.590;7.752;2023-02-24T04:16:37;64.43;;;22.23;;
25870;SDS011;13689;48.590;7.752;2023-02-24T04:19:13;54.28;;;19.25;;
25870;SDS011;13689;48.590;7.752;2023-02-24T04:21:43;63.45;;;21.65;;
25870;SDS011;13689;48.590;7.752;2023-02-24T04:24:12;62.17;;;22.30;;
25870;SDS011;13689;48.590;7.752;2023-02-24T04:26:45;45.47;;;16.42;;
25870;SDS011;13689;48.590;7.752;2023-02-24T04:29:16;48.33;;;17.48;;
25870;SDS011;13689;48.590;7.752;2023-02-24T04:31:47;73.47;;;23.92;;
25870;SDS011;13689;48.590;7.752;2023-02-24T04:34:17;61.53;;;21.55;;
25870;SDS011;13689;48.590;7.752;2023-02-24T04:36:47;61.53;;;22.13;;
25870;SDS011;13689;48.590;7.752;2023-02-24T04:39:16;67.93;;;23.52;;
25870;SDS011;13689;48.590;7.752;2023-02-24T04:41:46;61.75;;;22.23;;
25870;SDS011;13689;48.590;7.752;2023-02-24T04:44:13;66.82;;;22.58;;
25870;SDS011;13689;48.590;7.752;2023-02-24T04:46:44;62.50;;;22.30;;
25870;SDS011;13689;48.590;7.752;2023-02-24T04:49:10;67.68;;;23.77;;
25870;SDS011;13689;48.590;7.752;2023-02-24T04:51:36;62.30;;;22.45;;
25870;SDS011;13689;48.590;7.752;2023-02-24T04:54:06;67.13;;;24.35;;
25870;SDS011;13689;48.590;7.752;2023-02-24T04:56:32;70.10;;;24.52;;
25870;SDS011;13689;48.590;7.752;2023-02-24T04:58:59;62.95;;;23.85;;
25870;SDS011;13689;48.590;7.752;2023-02-24T05:01:26;65.68;;;23.25;;
25870;SDS011;13689;48.590;7.752;2023-02-24T05:03:53;65.90;;;23.70;;
25870;SDS011;13689;48.590;7.752;2023-02-24T05:06:18;64.78;;;22.05;;
25870;SDS011;13689;48.590;7.752;2023-02-24T05:08:44;77.20;;;24.85;;
25870;SDS011;13689;48.590;7.752;2023-02-24T05:11:14;67.40;;;23.13;;
25870;SDS011;13689;48.590;7.752;2023-02-24T05:13:40;67.80;;;23.48;;
25870;SDS011;13689;48.590;7.752;2023-02-24T05:16:09;63.70;;;20.75;;
25870;SDS011;13689;48.590;7.752;2023-02-24T05:18:37;75.57;;;23.95;;
25870;SDS011;13689;48.590;7.752;2023-02-24T05:21:07;68.05;;;22.83;;
25870;SDS011;13689;48.590;7.752;2023-02-24T05:23:54;65.90;;;23.88;;
25870;SDS011;13689;48.590;7.752;2023-02-24T05:26:22;66.70;;;20.60;;
25870;SDS011;13689;48.590;7.752;2023-02-24T05:28:49;68.38;;;23.23;;
25870;SDS011;13689;48.590;7.752;2023-02-24T05:31:18;55.22;;;18.52;;
25870;SDS011;13689;48.590;7.752;2023-02-24T05:33:47;71.20;;;23.30;;
25870;SDS011;13689;48.590;7.752;2023-02-24T05:36:17;63.72;;;21.42;;
25870;SDS011;13689;48.590;7.752;2023-02-24T05:38:43;73.97;;;25.17;;
25870;SDS011;13689;48.590;7.752;2023-02-24T05:41:11;71.18;;;23.40;;
25870;SDS011;13689;48.590;7.752;2023-02-24T05:43:45;63.50;;;23.77;;
25870;SDS011;13689;48.590;7.752;2023-02-24T05:46:16;69.72;;;22.58;;
25870;SDS011;13689;48.590;7.752;2023-02-24T05:48:52;69.40;;;22.80;;
25870;SDS011;13689;48.590;7.752;2023-02-24T05:51:21;75.55;;;24.35;;
25870;SDS011;13689;48.590;7.752;2023-02-24T05:53:51;71.03;;;24.30;;
25870;SDS011;13689;48.590;7.752;2023-02-24T05:56:19;72.28;;;23.17;;
25870;SDS011;13689;48.590;7.752;2023-02-24T05:58:47;73.50;;;24.83;;
25870;SDS011;13689;48.590;7.752;2023-02-24T06:01:26;64.45;;;23.58;;
25870;SDS011;13689;48.590;7.752;2023-02-24T06:03:54;66.85;;;22.70;;
25870;SDS011;13689;48.590;7.752;2023-02-24T06:06:20;71.50;;;24.42;;
25870;SDS011;13689;48.590;7.752;2023-02-24T06:08:47;74.45;;;23.30;;
25870;SDS011;13689;48.590;7.752;2023-02-24T06:11:15;68.10;;;23.85;;
25870;SDS011;13689;48.590;7.752;2023-02-24T06:13:42;56.10;;;18.45;;
25870;SDS011;13689;48.590;7.752;2023-02-24T06:16:15;64.00;;;20.77;;
25870;SDS011;13689;48.590;7.752;2023-02-24T06:18:42;73.55;;;23.02;;
25870;SDS011;13689;48.590;7.752;2023-02-24T06:21:11;68.68;;;23.75;;
25870;SDS011;13689;48.590;7.752;2023-02-24T06:23:39;65.90;;;21.08;;
25870;SDS011;13689;48.590;7.752;2023-02-24T06:26:05;66.00;;;21.35;;
25870;SDS011;13689;48.590;7.752;2023-02-24T06:28:37;67.10;;;21.73;;
25870;SDS011;13689;48.590;7.752;2023-02-24T06:31:04;73.90;;;23.52;;
25870;SDS011;13689;48.590;7.752;2023-02-24T06:33:33;67.47;;;23.50;;
25870;SDS011;13689;48.590;7.752;2023-02-24T06:36:00;54.03;;;17.25;;
25870;SDS011;13689;48.590;7.752;2023-02-24T06:38:29;66.10;;;22.73;;
25870;SDS011;13689;48.590;7.752;2023-02-24T06:40:56;67.70;;;23.15;;
25870;SDS011;13689;48.590;7.752;2023-02-24T06:43:22;66.97;;;23.85;;
25870;SDS011;13689;48.590;7.752;2023-02-24T06:45:48;74.65;;;23.20;;
25870;SDS011;13689;48.590;7.752;2023-02-24T06:48:14;76.90;;;24.15;;
25870;SDS011;13689;48.590;7.752;2023-02-24T06:50:39;74.57;;;23.02;;
25870;SDS011;13689;48.590;7.752;2023-02-24T06:53:05;77.93;;;24.27;;
25870;SDS011;13689;48.590;7.752;2023-02-24T06:55:40;70.65;;;24.48;;
25870;SDS011;13689;48.590;7.752;2023-02-24T06:58:17;78.05;;;25.17;;
25870;SDS011;13689;48.590;7.752;2023-02-24T07:00:44;78.60;;;24.55;;
25870;SDS011;13689;48.590;7.752;2023-02-24T07:03:21;75.80;;;25.27;;
25870;SDS011;13689;48.590;7.752;2023-02-24T07:08:39;68.95;;;22.85;;
25870;SDS011;13689;48.590;7.752;2023-02-24T07:11:05;65.45;;;24.40;;
25870;SDS011;13689;48.590;7.752;2023-02-24T07:13:31;76.90;;;25.55;;
25870;SDS011;13689;48.590;7.752;2023-02-24T07:15:58;85.43;;;26.25;;
25870;SDS011;13689;48.590;7.752;2023-02-24T07:18:30;77.63;;;25.85;;
25870;SDS011;13689;48.590;7.752;2023-02-24T07:21:04;75.40;;;23.27;;
25870;SDS011;13689;48.590;7.752;2023-02-24T07:23:36;75.75;;;25.38;;
25870;SDS011;13689;48.590;7.752;2023-02-24T07:26:06;77.82;;;25.73;;
25870;SDS011;13689;48.590;7.752;2023-02-24T07:28:36;80.95;;;23.08;;
25870;SDS011;13689;48.590;7.752;2023-02-24T07:33:41;80.82;;;24.13;;
25870;SDS011;13689;48.590;7.752;2023-02-24T07:38:39;68.35;;;21.95;;
25870;SDS011;13689;48.590;7.752;2023-02-24T07:41:06;57.33;;;17.13;;
25870;SDS011;13689;48.590;7.752;2023-02-24T07:43:34;77.10;;;24.13;;
25870;SDS011;13689;48.590;7.752;2023-02-24T07:46:14;73.75;;;24.95;;
25870;SDS011;13689;48.590;7.752;2023-02-24T07:48:44;82.50;;;25.60;;
25870;SDS011;13689;48.590;7.752;2023-02-24T07:51:14;79.57;;;24.30;;
25870;SDS011;13689;48.590;7.752;2023-02-24T07:53:42;80.45;;;26.42;;
25870;SDS011;13689;48.590;7.752;2023-02-24T07:56:08;81.45;;;26.73;;
25870;SDS011;13689;48.590;7.752;2023-02-24T07:58:41;80.32;;;26.13;;
25870;SDS011;13689;48.590;7.752;2023-02-24T08:01:08;73.50;;;23.90;;
25870;SDS011;13689;48.590;7.752;2023-02-24T08:03:44;87.45;;;29.35;;
25870;SDS011;13689;48.590;7.752;2023-02-24T08:06:10;74.50;;;25.35;;
25870;SDS011;13689;48.590;7.752;2023-02-24T08:08:51;77.13;;;24.50;;
25870;SDS011;13689;48.590;7.752;2023-02-24T08:11:25;72.00;;;23.40;;
25870;SDS011;13689;48.590;7.752;2023-02-24T08:13:58;73.75;;;25.08;;
25870;SDS011;13689;48.590;7.752;2023-02-24T08:19:03;65.60;;;21.75;;
25870;SDS011;13689;48.590;7.752;2023-02-24T08:21:30;75.93;;;23.60;;
25870;SDS011;13689;48.590;7.752;2023-02-24T08:24:02;70.10;;;22.13;;
25870;SDS011;13689;48.590;7.752;2023-02-24T08:26:31;67.75;;;22.35;;
25870;SDS011;13689;48.590;7.752;2023-02-24T08:29:01;72.30;;;23.00;;
25870;SDS011;13689;48.590;7.752;2023-02-24T08:31:31;63.72;;;21.75;;
25870;SDS011;13689;48.590;7.752;2023-02-24T08:33:57;69.05;;;21.38;;
25870;SDS011;13689;48.590;7.752;2023-02-24T08:36:22;55.83;;;19.60;;
25870;SDS011;13689;48.590;7.752;2023-02-24T08:38:50;51.55;;;18.73;;
25870;SDS011;13689;48.590;7.752;2023-02-24T08:41:16;57.65;;;19.95;;
25870;SDS011;13689;48.590;7.752;2023-02-24T08:43:45;64.07;;;20.65;;
25870;SDS011;13689;48.590;7.752;2023-02-24T08:46:16;64.10;;;20.67;;
25870;SDS011;13689;48.590;7.752;2023-02-24T08:48:55;59.15;;;21.23;;
25870;SDS011;13689;48.590;7.752;2023-02-24T08:53:54;56.47;;;21.70;;
25870;SDS011;13689;48.590;7.752;2023-02-24T08:56:25;55.63;;;21.60;;
25870;SDS011;13689;48.590;7.752;2023-02-24T08:58:58;65.25;;;22.42;;
25870;SDS011;13689;48.590;7.752;2023-02-24T09:01:35;56.75;;;21.02;;
25870;SDS011;13689;48.590;7.752;2023-02-24T09:04:05;61.22;;;22.90;;
25870;SDS011;13689;48.590;7.752;2023-02-24T09:06:45;59.08;;;21.60;;
25870;SDS011;13689;48.590;7.752;2023-02-24T09:09:22;64.20;;;22.23;;
25870;SDS011;13689;48.590;7.752;2023-02-24T09:14:27;59.65;;;23.30;;
25870;SDS011;13689;48.590;7.752;2023-02-24T09:17:00;52.22;;;21.30;;
25870;SDS011;13689;48.590;7.752;2023-02-24T09:19:27;60.83;;;22.30;;
25870;SDS011;13689;48.590;7.752;2023-02-24T09:22:25;62.03;;;21.20;;
25870;SDS011;13689;48.590;7.752;2023-02-24T09:25:21;58.42;;;20.90;;
25870;SDS011;13689;48.590;7.752;2023-02-24T09:28:11;63.65;;;21.75;;
25870;SDS011;13689;48.590;7.752;2023-02-24T09:30:42;56.53;;;20.83;;
25870;SDS011;13689;48.590;7.752;2023-02-24T09:33:27;61.30;;;20.60;;
25870;SDS011;13689;48.590;7.752;2023-02-24T09:36:03;54.10;;;19.83;;
25870;SDS011;13689;48.590;7.752;2023-02-24T09:44:45;65.22;;;20.17;;
25870;SDS011;13689;48.590;7.752;2023-02-24T09:50:31;55.33;;;20.17;;
25870;SDS011;13689;48.590;7.752;2023-02-24T09:53:33;54.88;;;21.45;;
25870;SDS011;13689;48.590;7.752;2023-02-24T09:56:15;63.67;;;22.33;;
25870;SDS011;13689;48.590;7.752;2023-02-24T10:04:33;63.72;;;22.73;;
25870;SDS011;13689;48.590;7.752;2023-02-24T10:07:23;61.20;;;22.50;;
25870;SDS011;13689;48.590;7.752;2023-02-24T10:10:04;56.40;;;24.02;;
25870;SDS011;13689;48.590;7.752;2023-02-24T10:12:45;58.55;;;22.73;;
25870;SDS011;13689;48.590;7.752;2023-02-24T10:15:37;58.42;;;23.85;;
25870;SDS011;13689;48.590;7.752;2023-02-24T10:18:29;55.90;;;22.05;;
25870;SDS011;13689;48.590;7.752;2023-02-24T10:26:51;60.40;;;24.00;;
25870;SDS011;13689;48.590;7.752;2023-02-24T10:29:32;59.35;;;23.80;;
25870;SDS011;13689;48.590;7.752;2023-02-24T10:34:51;57.63;;;21.15;;
25870;SDS011;13689;48.590;7.752;2023-02-24T10:37:21;59.72;;;23.60;;
25870;SDS011;13689;48.590;7.752;2023-02-24T10:39:48;60.22;;;23.00;;
25870;SDS011;13689;48.590;7.752;2023-02-24T10:42:24;54.95;;;22.02;;
25870;SDS011;13689;48.590;7.752;2023-02-24T10:45:36;58.35;;;22.55;;
25870;SDS011;13689;48.590;7.752;2023-02-24T10:47:57;59.35;;;21.30;;
25870;SDS011;13689;48.590;7.752;2023-02-24T10:53:06;57.40;;;21.88;;
25870;SDS011;13689;48.590;7.752;2023-02-24T10:55:50;55.45;;;22.10;;
25870;SDS011;13689;48.590;7.752;2023-02-24T10:58:32;59.83;;;21.67;;
25870;SDS011;13689;48.590;7.752;2023-02-24T11:01:19;58.00;;;21.42;;
25870;SDS011;13689;48.590;7.752;2023-02-24T11:04:11;50.95;;;20.42;;
25870;SDS011;13689;48.590;7.752;2023-02-24T11:07:10;55.75;;;22.10;;
25870;SDS011;13689;48.590;7.752;2023-02-24T11:09:48;51.33;;;20.05;;
25870;SDS011;13689;48.590;7.752;2023-02-24T11:12:45;51.22;;;19.10;;
25870;SDS011;13689;48.590;7.752;2023-02-24T11:15:31;38.85;;;17.40;;
25870;SDS011;13689;48.590;7.752;2023-02-24T11:18:19;50.83;;;18.58;;
25870;SDS011;13689;48.590;7.752;2023-02-24T11:20:49;48.13;;;17.52;;
25870;SDS011;13689;48.590;7.752;2023-02-24T11:23:20;49.70;;;18.50;;
25870;SDS011;13689;48.590;7.752;2023-02-24T11:26:22;45.50;;;18.50;;
25870;SDS011;13689;48.590;7.752;2023-02-24T11:42:57;36.63;;;13.90;;
25870;SDS011;13689;48.590;7.752;2023-02-24T11:45:33;34.90;;;13.45;;
25870;SDS011;13689;48.590;7.752;2023-02-24T11:50:49;30.27;;;11.70;;
25870;SDS011;13689;48.590;7.752;2023-02-24T11:53:24;30.58;;;12.30;;
25870;SDS011;13689;48.590;7.752;2023-02-24T11:56:28;36.22;;;12.45;;
25870;SDS011;13689;48.590;7.752;2023-02-24T12:01:49;33.90;;;12.35;;
25870;SDS011;13689;48.590;7.752;2023-02-24T12:04:39;29.13;;;11.15;;
25870;SDS011;13689;48.590;7.752;2023-02-24T12:07:41;20.33;;;8.27;;
25870;SDS011;13689;48.590;7.752;2023-02-24T12:15:52;20.65;;;7.28;;
25870;SDS011;13689;48.590;7.752;2023-02-24T12:18:37;22.70;;;8.55;;
25870;SDS011;13689;48.590;7.752;2023-02-24T12:23:36;23.05;;;8.20;;
25870;SDS011;13689;48.590;7.752;2023-02-24T12:26:18;19.67;;;7.43;;
25870;SDS011;13689;48.590;7.752;2023-02-24T12:29:14;21.73;;;8.10;;
25870;SDS011;13689;48.590;7.752;2023-02-24T12:45:09;17.10;;;7.82;;
25870;SDS011;13689;48.590;7.752;2023-02-24T12:58:44;22.50;;;8.05;;
25870;SDS011;13689;48.590;7.752;2023-02-24T13:01:31;18.70;;;8.38;;
25870;SDS011;13689;48.590;7.752;2023-02-24T13:09:50;29.25;;;11.45;;
25870;SDS011;13689;48.590;7.752;2023-02-24T13:15:03;30.30;;;12.05;;
25870;SDS011;13689;48.590;7.752;2023-02-24T13:17:30;30.67;;;11.27;;
25870;SDS011;13689;48.590;7.752;2023-02-24T13:19:56;32.05;;;10.27;;
25870;SDS011;13689;48.590;7.752;2023-02-24T13:22:38;23.02;;;7.68;;
25870;SDS011;13689;48.590;7.752;2023-02-24T13:27:35;33.42;;;11.48;;
25870;SDS011;13689;48.590;7.752;2023-02-24T13:32:40;24.55;;;11.75;;
25870;SDS011;13689;48.590;7.752;2023-02-24T13:37:44;38.85;;;12.90;;
25870;SDS011;13689;48.590;7.752;2023-02-24T13:42:42;33.72;;;11.60;;
25870;SDS011;13689;48.590;7.752;2023-02-24T13:45:21;34.17;;;13.27;;
25870;SDS011;13689;48.590;7.752;2023-02-24T14:04:44;45.47;;;17.67;;
25870;SDS011;13689;48.590;7.752;2023-02-24T14:07:22;41.13;;;17.08;;
25870;SDS011;13689;48.590;7.752;2023-02-24T14:09:51;41.17;;;15.20;;
25870;SDS011;13689;48.590;7.752;2023-02-24T14:12:22;44.22;;;16.20;;
25870;SDS011;13689;48.590;7.752;2023-02-24T14:14:53;47.25;;;16.25;;
25870;SDS011;13689;48.590;7.752;2023-02-24T14:17:21;44.58;;;17.10;;
25870;SDS011;13689;48.590;7.752;2023-02-24T14:22:45;46.75;;;16.38;;
25870;SDS011;13689;48.590;7.752;2023-02-24T14:25:13;44.80;;;18.15;;
25870;SDS011;13689;48.590;7.752;2023-02-24T14:27:41;53.20;;;18.85;;
25870;SDS011;13689;48.590;7.752;2023-02-24T14:30:30;55.15;;;20.08;;
25870;SDS011;13689;48.590;7.752;2023-02-24T14:33:06;50.35;;;17.15;;
25870;SDS011;13689;48.590;7.752;2023-02-24T14:35:46;44.67;;;16.45;;
25870;SDS011;13689;48.590;7.752;2023-02-24T14:40:54;41.92;;;17.00;;
25870;SDS011;13689;48.590;7.752;2023-02-24T14:43:19;50.85;;;17.40;;
25870;SDS011;13689;48.590;7.752;2023-02-24T14:45:49;47.47;;;16.88;;
25870;SDS011;13689;48.590;7.752;2023-02-24T14:48:28;52.53;;;19.95;;
25870;SDS011;13689;48.590;7.752;2023-02-24T14:51:06;50.45;;;19.50;;
25870;SDS011;13689;48.590;7.752;2023-02-24T14:53:56;46.40;;;18.70;;
25870;SDS011;13689;48.590;7.752;2023-02-24T14:56:31;51.70;;;19.55;;
25870;SDS011;13689;48.590;7.752;2023-02-24T15:04:00;48.70;;;18.17;;
25870;SDS011;13689;48.590;7.752;2023-02-24T15:06:40;47.90;;;17.60;;
25870;SDS011;13689;48.590;7.752;2023-02-24T15:09:21;45.10;;;18.90;;
25870;SDS011;13689;48.590;7.752;2023-02-24T15:11:49;49.13;;;19.67;;
25870;SDS011;13689;48.590;7.752;2023-02-24T15:14:24;44.92;;;18.27;;
25870;SDS011;13689;48.590;7.752;2023-02-24T15:16:53;52.33;;;17.92;;
25870;SDS011;13689;48.590;7.752;2023-02-24T15:19:30;43.05;;;18.30;;
25870;SDS011;13689;48.590;7.752;2023-02-24T15:21:59;42.17;;;17.63;;
25870;SDS011;13689;48.590;7.752;2023-02-24T15:24:27;48.20;;;18.77;;
25870;SDS011;13689;48.590;7.752;2023-02-24T15:29:44;57.72;;;18.20;;
25870;SDS011;13689;48.590;7.752;2023-02-24T15:32:31;49.28;;;18.73;;
25870;SDS011;13689;48.590;7.752;2023-02-24T15:34:58;49.15;;;18.60;;
25870;SDS011;13689;48.590;7.752;2023-02-24T15:37:45;51.67;;;19.13;;
25870;SDS011;13689;48.590;7.752;2023-02-24T15:42:48;49.22;;;18.42;;
25870;SDS011;13689;48.590;7.752;2023-02-24T15:47:52;52.80;;;19.58;;
25870;SDS011;13689;48.590;7.752;2023-02-24T15:50:20;45.55;;;18.17;;
25870;SDS011;13689;48.590;7.752;2023-02-24T15:52:46;48.75;;;19.80;;
25870;SDS011;13689;48.590;7.752;2023-02-24T15:55:17;53.05;;;20.27;;
25870;SDS011;13689;48.590;7.752;2023-02-24T15:57:44;54.40;;;21.33;;
25870;SDS011;13689;48.590;7.752;2023-02-24T16:00:12;52.57;;;20.30;;
25870;SDS011;13689;48.590;7.752;2023-02-24T16:02:40;51.92;;;19.38;;
25870;SDS011;13689;48.590;7.752;2023-02-24T16:05:06;49.03;;;19.73;;
25870;SDS011;13689;48.590;7.752;2023-02-24T16:07:42;44.75;;;19.08;;
25870;SDS011;13689;48.590;7.752;2023-02-24T16:12:45;40.35;;;16.55;;
25870;SDS011;13689;48.590;7.752;2023-02-24T16:15:14;40.78;;;15.27;;
25870;SDS011;13689;48.590;7.752;2023-02-24T16:17:44;39.30;;;16.05;;
25870;SDS011;13689;48.590;7.752;2023-02-24T16:22:38;34.88;;;13.77;;
25870;SDS011;13689;48.590;7.752;2023-02-24T16:25:03;36.78;;;13.52;;
25870;SDS011;13689;48.590;7.752;2023-02-24T16:27:30;37.75;;;13.65;;
25870;SDS011;13689;48.590;7.752;2023-02-24T16:29:56;38.15;;;13.15;;
25870;SDS011;13689;48.590;7.752;2023-02-24T16:32:22;30.83;;;13.20;;
25870;SDS011;13689;48.590;7.752;2023-02-24T16:34:49;33.97;;;14.13;;
25870;SDS011;13689;48.590;7.752;2023-02-24T16:37:19;41.35;;;13.30;;
25870;SDS011;13689;48.590;7.752;2023-02-24T16:39:48;39.38;;;13.90;;
25870;SDS011;13689;48.590;7.752;2023-02-24T16:42:16;39.42;;;14.07;;
25870;SDS011;13689;48.590;7.752;2023-02-24T16:44:42;33.33;;;13.48;;
25870;SDS011;13689;48.590;7.752;2023-02-24T16:47:11;35.20;;;13.55;;
25870;SDS011;13689;48.590;7.752;2023-02-24T16:49:40;38.13;;;14.48;;
25870;SDS011;13689;48.590;7.752;2023-02-24T16:52:06;37.05;;;13.90;;
25870;SDS011;13689;48.590;7.752;2023-02-24T16:54:31;33.80;;;13.38;;
25870;SDS011;13689;48.590;7.752;2023-02-24T16:56:57;40.05;;;14.35;;
25870;SDS011;13689;48.590;7.752;2023-02-24T16:59:23;36.83;;;13.73;;
25870;SDS011;13689;48.590;7.752;2023-02-24T17:01:52;40.00;;;15.55;;
25870;SDS011;13689;48.590;7.752;2023-02-24T17:04:18;38.70;;;13.90;;
25870;SDS011;13689;48.590;7.752;2023-02-24T17:06:45;33.42;;;13.35;;
25870;SDS011;13689;48.590;7.752;2023-02-24T17:09:11;35.05;;;13.02;;
25870;SDS011;13689;48.590;7.752;2023-02-24T17:11:39;34.92;;;12.43;;
25870;SDS011;13689;48.590;7.752;2023-02-24T17:14:10;36.17;;;12.32;;
25870;SDS011;13689;48.590;7.752;2023-02-24T17:16:43;37.05;;;13.55;;
25870;SDS011;13689;48.590;7.752;2023-02-24T17:19:09;39.00;;;14.07;;
25870;SDS011;13689;48.590;7.752;2023-02-24T17:21:35;37.05;;;14.55;;
25870;SDS011;13689;48.590;7.752;2023-02-24T17:24:05;35.67;;;12.85;;
25870;SDS011;13689;48.590;7.752;2023-02-24T17:26:31;36.80;;;12.88;;
25870;SDS011;13689;48.590;7.752;2023-02-24T17:28:57;33.78;;;13.23;;
25870;SDS011;13689;48.590;7.752;2023-02-24T17:31:22;32.10;;;12.57;;
25870;SDS011;13689;48.590;7.752;2023-02-24T17:33:48;34.50;;;12.90;;
25870;SDS011;13689;48.590;7.752;2023-02-24T17:36:13;37.05;;;13.63;;
25870;SDS011;13689;48.590;7.752;2023-02-24T17:38:39;40.63;;;13.07;;
25870;SDS011;13689;48.590;7.752;2023-02-24T17:41:05;35.42;;;13.82;;
25870;SDS011;13689;48.590;7.752;2023-02-24T17:43:30;32.20;;;13.02;;
25870;SDS011;13689;48.590;7.752;2023-02-24T17:45:56;29.15;;;13.20;;
25870;SDS011;13689;48.590;7.752;2023-02-24T17:48:22;30.90;;;12.43;;
25870;SDS011;13689;48.590;7.752;2023-02-24T17:50:47;39.65;;;13.88;;
25870;SDS011;13689;48.590;7.752;2023-02-24T17:53:13;42.20;;;14.07;;
25870;SDS011;13689;48.590;7.752;2023-02-24T17:55:39;32.88;;;13.52;;
25870;SDS011;13689;48.590;7.752;2023-02-24T17:58:06;34.08;;;13.55;;